thekoalition.com alexa rank chart, thekoalition.com alexa rank daily changes

thekoalition.com alexa rank chart, thekoalition.com alexa rank daily changes

thekoalition.com
Actual rank:
247 416

RANK HISTORY

Date Rank Diff
2017/08/17 247 416 +4 829
2017/08/16 242 587 +3 151
2017/08/15 239 436 -4 188
2017/08/14 243 624 +2 705
2017/08/13 240 919 -3 196
2017/08/12 244 115 +6 343
2017/08/11 237 772 +7 074
2017/08/10 230 698 +960
2017/08/09 229 738 -827
2017/08/08 230 565 +1 803
2017/08/07 228 762 +738
2017/08/06 228 024 +3 892
2017/08/05 224 132 +8 829
2017/08/04 215 303 -331
2017/08/03 215 634 +4 279
2017/08/02 211 355 -411
2017/08/01 211 766 +4 898
2017/07/31 206 868 +9 401
2017/07/30 197 467 +981
2017/07/29 196 486 +1 167
2017/07/28 195 319 -194
2017/07/27 195 513 -1 014
2017/07/26 196 527 +1 033
2017/07/25 195 494 -5 403
2017/07/24 200 897 +1 864
2017/07/23 199 033 -761
2017/07/22 199 794 +197
2017/07/21 199 597 +4 660
2017/07/20 194 937 -2 430
2017/07/19 197 367 -804
2017/07/18 198 171 -5 242
2017/07/17 203 413 -2 564
2017/07/16 205 977 +2 353
2017/07/15 203 624 -2 991
2017/07/14 206 615 +391
2017/07/13 206 224 +6 948
2017/07/12 199 276 -1 412
2017/07/11 200 688 -4 195
2017/07/10 204 883 +615
2017/07/09 204 268 +802
2017/07/08 203 466 +551
2017/07/07 202 915 -3 518
2017/07/06 206 433 +3 322
2017/07/05 203 111 -2 692
2017/07/04 205 803 -754
2017/07/03 206 557 -1 668
2017/07/02 208 225 -1 111
2017/07/01 209 336 -5 755
2017/06/30 215 091 +2 412
2017/06/29 212 679 +1 921
2017/06/28 210 758 -1 260
2017/06/27 212 018 +2 194
2017/06/26 209 824 +2 200
2017/06/25 207 624 +1 550
2017/06/24 206 074 +1 891
2017/06/23 204 183 -1 027
2017/06/22 205 210 -587
2017/06/21 205 797 -5 735
2017/06/20 211 532 -8 249
2017/06/19 219 781 -4 428
2017/06/18 224 209

WIDGET FOR YOUR SITE

DOMAINS WITH THE NEAREST RANK

Domain Rank
xieejimh.com 247 411
te.gob.mx 247 412
acmarket.net 247 413
freac.org 247 414
dirittoprivatoinrete.it 247 415
thekoalition.com 247 416
konkoorsara.ir 247 417
dgu.hr 247 418
subtitles.at 247 419
beauty-of-feminine.com 247 420
funyo.tv 247 421

DOMAINS WITH THE NEAREST RANK BY TLD .com

Domain Rank
reditads.com 247 405
spaceshut.com 247 407
lowbrowcustoms.com 247 408
khtwaa.com 247 409
xieejimh.com 247 411
thekoalition.com 247 416
beauty-of-feminine.com 247 420
mimuu.com 247 422
crackfullworld.com 247 423
kejadiananeh.com 247 425
survata.com 247 426